createdAt,value
2019-03-10T00:01:35.688Z,21.93
2019-03-10T00:04:03.853Z,19.63
2019-03-10T00:06:33.704Z,18.47
2019-03-10T00:09:01.844Z,20.73
2019-03-10T00:11:30.012Z,22.48
2019-03-10T00:13:58.155Z,22.27
2019-03-10T00:16:26.420Z,23.90
2019-03-10T00:18:54.603Z,17.00
2019-03-10T00:21:22.742Z,20.87
2019-03-10T00:23:50.877Z,22.57
2019-03-10T00:26:20.890Z,20.90
2019-03-10T00:28:48.839Z,13.40
2019-03-10T00:31:16.977Z,18.57
2019-03-10T00:33:45.159Z,14.97
2019-03-10T00:36:13.292Z,15.00
2019-03-10T00:38:43.060Z,15.17
2019-03-10T00:41:25.064Z,19.83
2019-03-10T00:44:10.108Z,14.37
2019-03-10T00:46:46.283Z,19.80
2019-03-10T00:49:18.704Z,18.17
2019-03-10T00:51:54.515Z,16.63
2019-03-10T00:54:22.653Z,16.87
2019-03-10T00:56:50.794Z,11.87
2019-03-10T00:59:18.975Z,19.93
2019-03-10T01:01:47.182Z,24.43
2019-03-10T01:04:15.321Z,18.50
2019-03-10T01:06:45.130Z,18.03
2019-03-10T01:09:13.266Z,18.33
2019-03-10T01:11:41.704Z,21.70
2019-03-10T01:14:10.000Z,17.73
2019-03-10T01:16:38.165Z,16.03
2019-03-10T01:19:06.965Z,17.10
2019-03-10T01:21:35.136Z,13.77
2019-03-10T01:24:03.551Z,17.73
2019-03-10T01:26:31.715Z,20.23
2019-03-10T01:29:00.018Z,16.63
2019-03-10T01:31:32.736Z,15.23
2019-03-10T01:34:08.527Z,17.33
2019-03-10T01:36:37.246Z,13.30
2019-03-10T01:39:06.751Z,19.03
2019-03-10T01:41:34.920Z,22.73
2019-03-10T01:44:03.075Z,15.57
2019-03-10T01:46:31.217Z,17.13
2019-03-10T01:48:59.512Z,21.77
2019-03-10T01:51:27.649Z,22.67
2019-03-10T01:53:57.753Z,20.67
2019-03-10T01:56:25.604Z,18.77
2019-03-10T01:58:53.741Z,24.53
2019-03-10T02:01:21.877Z,21.57
2019-03-10T02:03:50.043Z,24.97
2019-03-10T02:06:18.180Z,23.63
2019-03-10T02:08:46.316Z,32.33
2019-03-10T02:11:14.507Z,22.73
2019-03-10T02:13:42.764Z,19.63
2019-03-10T02:16:10.911Z,20.50
2019-03-10T02:18:40.919Z,25.50
2019-03-10T02:21:09.032Z,27.47
2019-03-10T02:23:38.116Z,29.67
2019-03-10T02:26:06.294Z,23.80
2019-03-10T02:28:34.436Z,27.10
2019-03-10T02:31:02.592Z,27.10
2019-03-10T02:33:30.769Z,27.67
2019-03-10T02:35:58.897Z,23.43
2019-03-10T02:38:27.043Z,31.97
2019-03-10T02:40:55.221Z,24.67
2019-03-10T02:43:23.361Z,34.07
2019-03-10T02:45:51.631Z,29.73
2019-03-10T02:48:19.797Z,30.23
2019-03-10T02:50:50.592Z,30.87
2019-03-10T02:53:20.619Z,25.87
2019-03-10T02:55:48.807Z,27.60
2019-03-10T02:58:16.941Z,23.07
2019-03-10T03:00:45.082Z,29.33
2019-03-10T03:03:13.245Z,26.87
2019-03-10T03:05:41.398Z,29.30
2019-03-10T03:08:09.535Z,30.23
2019-03-10T03:10:37.709Z,27.13
2019-03-10T03:13:05.852Z,24.33
2019-03-10T03:15:34.109Z,24.90
2019-03-10T03:18:02.336Z,25.40
2019-03-10T03:20:30.855Z,24.30
2019-03-10T03:22:58.995Z,20.20
2019-03-10T03:25:28.800Z,17.90
2019-03-10T03:27:56.933Z,22.83
2019-03-10T03:30:26.337Z,20.83
2019-03-10T03:32:54.466Z,15.10
2019-03-10T03:35:40.721Z,14.33
2019-03-10T03:38:08.898Z,21.70
2019-03-10T03:40:38.665Z,17.17
2019-03-10T03:43:06.807Z,15.33
2019-03-10T03:45:34.976Z,18.23
2019-03-10T03:48:03.128Z,21.10
2019-03-10T03:50:31.275Z,17.37
2019-03-10T03:52:59.430Z,13.13
2019-03-10T03:55:27.576Z,18.47
2019-03-10T03:57:55.718Z,20.97
2019-03-10T04:00:23.996Z,14.47
2019-03-10T04:02:52.148Z,17.57
2019-03-10T04:05:20.281Z,18.57
2019-03-10T04:07:48.459Z,16.20
2019-03-10T04:10:16.579Z,20.03
2019-03-10T04:12:44.851Z,12.67
2019-03-10T04:15:13.027Z,20.53
2019-03-10T04:17:41.169Z,15.73
2019-03-10T04:20:09.482Z,14.83
2019-03-10T04:22:37.648Z,15.90
2019-03-10T04:25:06.453Z,14.30
2019-03-10T04:27:34.602Z,13.83
2019-03-10T04:30:02.776Z,14.60
2019-03-10T04:32:30.912Z,14.77
2019-03-10T04:34:59.063Z,16.57
2019-03-10T04:37:27.228Z,14.40
2019-03-10T04:39:55.375Z,19.00
2019-03-10T04:42:23.515Z,14.13
2019-03-10T04:44:51.684Z,14.40
2019-03-10T04:47:19.828Z,14.40
2019-03-10T04:49:47.960Z,12.17
2019-03-10T04:52:16.138Z,11.37
2019-03-10T04:54:45.907Z,15.43
2019-03-10T04:57:15.690Z,13.37
2019-03-10T04:59:43.865Z,16.13
2019-03-10T05:02:11.996Z,17.37
2019-03-10T05:04:40.137Z,16.60
2019-03-10T05:07:08.319Z,16.50
2019-03-10T05:09:36.455Z,13.10
2019-03-10T05:12:04.599Z,13.67
2019-03-10T05:14:32.789Z,12.60
2019-03-10T05:17:00.940Z,10.73
2019-03-10T05:19:29.385Z,12.50
2019-03-10T05:21:57.544Z,7.83
2019-03-10T05:24:25.685Z,17.10
2019-03-10T05:26:53.819Z,10.00
2019-03-10T05:29:21.988Z,10.00
2019-03-10T05:31:50.119Z,10.53
2019-03-10T05:34:18.268Z,13.90
2019-03-10T05:36:47.311Z,13.70
2019-03-10T05:39:15.455Z,10.73
2019-03-10T05:41:43.580Z,11.20
2019-03-10T05:44:11.773Z,11.73
2019-03-10T05:46:40.833Z,13.47
2019-03-10T05:49:09.012Z,13.90
2019-03-10T05:51:37.356Z,14.37
2019-03-10T05:54:05.492Z,16.50
2019-03-10T05:56:33.711Z,9.37
2019-03-10T05:59:01.828Z,16.40
2019-03-10T06:01:29.981Z,15.40
2019-03-10T06:03:58.108Z,13.40
2019-03-10T06:06:26.338Z,12.57
2019-03-10T06:08:54.781Z,16.90
2019-03-10T06:11:23.126Z,12.73
2019-03-10T06:13:51.695Z,11.27
2019-03-10T06:16:19.846Z,13.43
2019-03-10T06:18:47.984Z,21.03
2019-03-10T06:21:16.166Z,13.27
2019-03-10T06:23:44.300Z,14.13
2019-03-10T06:26:12.452Z,20.13
2019-03-10T06:28:40.625Z,15.37
2019-03-10T06:31:08.767Z,17.93
2019-03-10T06:33:36.901Z,10.63
2019-03-10T06:36:05.064Z,18.23
2019-03-10T06:38:33.466Z,22.17
2019-03-10T06:41:01.610Z,10.23
2019-03-10T06:43:29.948Z,22.97
2019-03-10T06:45:58.286Z,17.40
2019-03-10T06:48:27.432Z,16.07
2019-03-10T06:50:55.620Z,18.23
2019-03-10T06:53:23.762Z,24.07
2019-03-10T06:55:52.030Z,18.60
2019-03-10T06:58:20.192Z,14.17
2019-03-10T07:00:48.347Z,17.43
2019-03-10T07:03:16.528Z,18.97
2019-03-10T07:05:44.648Z,17.73
2019-03-10T07:08:12.784Z,10.67
2019-03-10T07:10:40.921Z,15.43
2019-03-10T07:13:09.084Z,20.17
2019-03-10T07:15:37.226Z,9.43
2019-03-10T07:18:05.365Z,10.57
2019-03-10T07:20:36.852Z,13.33
2019-03-10T07:23:06.627Z,10.03
2019-03-10T07:25:34.902Z,14.15
2019-03-10T07:28:04.708Z,12.60
2019-03-10T07:30:40.264Z,10.80
2019-03-10T07:33:22.375Z,15.53
2019-03-10T07:35:52.155Z,15.73
2019-03-10T07:38:27.944Z,15.20
2019-03-10T07:41:12.464Z,11.07
2019-03-10T07:43:57.805Z,14.27
2019-03-10T07:46:45.521Z,13.73
2019-03-10T07:49:27.376Z,11.67
2019-03-10T07:52:05.956Z,10.30
2019-03-10T07:54:42.144Z,12.23
2019-03-10T07:57:17.920Z,12.63
2019-03-10T07:59:47.773Z,12.03
2019-03-10T08:02:17.532Z,10.20
2019-03-10T08:04:50.464Z,9.93
2019-03-10T08:07:36.649Z,8.37
2019-03-10T08:10:10.868Z,9.53
2019-03-10T08:12:46.773Z,7.43
2019-03-10T08:15:22.484Z,11.03
2019-03-10T08:17:55.350Z,11.00
2019-03-10T08:20:25.124Z,10.13
2019-03-10T08:23:00.721Z,9.70
2019-03-10T08:25:48.448Z,10.37
2019-03-10T08:28:36.571Z,9.30
2019-03-10T08:31:22.942Z,10.20
2019-03-10T08:33:52.764Z,9.40
2019-03-10T08:36:25.713Z,10.20
2019-03-10T08:39:04.700Z,7.40
2019-03-10T08:41:43.221Z,9.10
2019-03-10T08:44:25.837Z,7.77
2019-03-10T08:47:07.530Z,9.97
2019-03-10T08:49:45.019Z,6.50
2019-03-10T08:52:18.180Z,6.83
2019-03-10T08:54:57.262Z,6.83
2019-03-10T08:57:27.029Z,8.03
2019-03-10T09:00:05.777Z,7.20
2019-03-10T09:02:41.769Z,9.63
2019-03-10T09:05:28.174Z,8.93
2019-03-10T09:08:14.179Z,6.43
2019-03-10T09:10:58.996Z,7.83
2019-03-10T09:13:29.065Z,4.93
2019-03-10T09:16:01.535Z,7.57
2019-03-10T09:18:34.053Z,9.47
2019-03-10T09:21:20.396Z,5.00
2019-03-10T09:24:06.532Z,4.30
2019-03-10T09:26:42.419Z,6.07
2019-03-10T09:29:12.176Z,5.60
2019-03-10T09:31:51.004Z,5.00
2019-03-10T09:34:26.961Z,4.27
2019-03-10T09:37:13.031Z,6.03
2019-03-10T09:40:01.057Z,5.60
2019-03-10T09:42:45.832Z,9.00
2019-03-10T09:45:15.606Z,9.13
2019-03-10T09:47:51.204Z,9.50
2019-03-10T09:50:30.106Z,21.13
2019-03-10T09:52:59.889Z,23.53
2019-03-10T09:55:46.188Z,31.50
2019-03-10T09:58:16.004Z,24.97
2019-03-10T10:00:48.489Z,43.03
2019-03-10T10:03:18.385Z,44.07
2019-03-10T10:05:57.592Z,60.73
2019-03-10T10:08:36.111Z,74.77
2019-03-10T10:11:05.938Z,105.80
2019-03-10T10:13:35.736Z,126.97
2019-03-10T10:16:21.780Z,121.80
2019-03-10T10:18:57.757Z,126.37
2019-03-10T10:21:36.806Z,107.57
2019-03-10T10:24:23.437Z,112.20
2019-03-10T10:26:53.258Z,105.67
2019-03-10T10:29:32.109Z,99.47
2019-03-10T10:32:07.718Z,88.50
2019-03-10T10:34:46.320Z,109.33
2019-03-10T10:37:28.311Z,116.57
2019-03-10T10:40:06.726Z,115.63
2019-03-10T10:42:52.272Z,94.37
2019-03-10T10:45:36.982Z,121.70
2019-03-10T10:48:09.537Z,104.37
2019-03-10T10:50:51.737Z,106.63
2019-03-10T10:53:24.534Z,99.27
2019-03-10T10:56:03.320Z,123.47
2019-03-10T10:58:45.367Z,97.57
2019-03-10T11:01:21.085Z,97.73
2019-03-10T11:03:53.682Z,100.57
2019-03-10T11:06:32.568Z,72.93
2019-03-10T11:09:03.094Z,102.30
2019-03-10T11:11:39.205Z,97.50
2019-03-10T11:14:09.415Z,90.03
2019-03-10T11:16:41.868Z,94.67
2019-03-10T11:19:11.663Z,95.37
2019-03-10T11:21:59.925Z,87.47
2019-03-10T11:24:29.711Z,78.33
2019-03-10T11:26:59.492Z,66.77
2019-03-10T11:29:32.241Z,71.80
2019-03-10T11:32:02.033Z,74.23
2019-03-10T11:34:31.845Z,67.17
2019-03-10T11:37:07.789Z,72.60
2019-03-10T11:39:49.997Z,84.17
2019-03-10T11:42:36.340Z,79.57
2019-03-10T11:45:07.749Z,68.83
2019-03-10T11:47:37.529Z,59.97
2019-03-10T11:50:08.913Z,51.03
2019-03-10T11:52:41.710Z,66.13
2019-03-10T11:55:11.516Z,40.23
2019-03-10T11:57:41.400Z,39.67
2019-03-10T12:00:15.349Z,32.10
2019-03-10T12:02:45.165Z,25.03
2019-03-10T12:05:31.642Z,18.50
2019-03-10T12:08:04.754Z,25.47
2019-03-10T12:10:32.955Z,25.57
2019-03-10T12:13:01.095Z,23.20
2019-03-10T12:15:29.261Z,23.57
2019-03-10T12:17:57.396Z,21.57
2019-03-10T12:20:25.539Z,25.03
2019-03-10T12:22:53.704Z,25.07
2019-03-10T12:25:23.411Z,22.60
2019-03-10T12:27:51.553Z,27.43
2019-03-10T12:30:19.738Z,29.30
2019-03-10T12:32:48.749Z,23.27
2019-03-10T12:35:16.899Z,22.10
2019-03-10T12:37:45.365Z,22.40
2019-03-10T12:40:13.801Z,24.33
2019-03-10T12:42:42.068Z,13.93
2019-03-10T12:45:11.001Z,13.70
2019-03-10T12:47:41.083Z,20.30
2019-03-10T12:50:10.490Z,22.60
2019-03-10T12:52:40.741Z,17.10
2019-03-10T12:55:09.644Z,16.47
2019-03-10T12:57:37.798Z,20.20
2019-03-10T13:00:15.849Z,16.80
2019-03-10T13:02:43.980Z,17.80
2019-03-10T13:05:12.130Z,15.23
2019-03-10T13:07:40.347Z,15.27
2019-03-10T13:10:08.469Z,11.23
2019-03-10T13:12:36.748Z,16.13
2019-03-10T13:15:06.557Z,9.30
2019-03-10T13:17:34.698Z,8.33
2019-03-10T13:20:03.605Z,7.67
2019-03-10T13:22:31.837Z,4.50
2019-03-10T13:25:00.035Z,7.67
2019-03-10T13:27:28.172Z,6.03
2019-03-10T13:29:56.348Z,6.60
2019-03-10T13:32:24.493Z,5.83
2019-03-10T13:34:52.633Z,8.07
2019-03-10T13:37:20.853Z,4.63
2019-03-10T13:39:49.074Z,10.50
2019-03-10T13:42:17.198Z,4.10
2019-03-10T13:44:45.386Z,2.20
2019-03-10T13:47:13.532Z,8.13
2019-03-10T13:49:41.712Z,3.13
2019-03-10T13:52:09.954Z,6.63
2019-03-10T13:54:38.164Z,4.30
2019-03-10T13:57:06.371Z,6.83
2019-03-10T13:59:35.646Z,3.30
2019-03-10T14:02:03.795Z,4.67
2019-03-10T14:04:31.938Z,5.17
2019-03-10T14:07:00.187Z,4.40
2019-03-10T14:09:28.333Z,4.97
2019-03-10T14:11:56.481Z,7.03
2019-03-10T14:14:24.744Z,1.57
2019-03-10T14:16:52.884Z,4.40
2019-03-10T14:19:21.330Z,3.37
2019-03-10T14:21:49.632Z,3.90
2019-03-10T14:24:17.749Z,3.30
2019-03-10T14:26:45.895Z,5.23
2019-03-10T14:29:14.096Z,2.50
2019-03-10T14:31:42.236Z,4.37
2019-03-10T14:34:10.389Z,1.27
2019-03-10T14:36:41.021Z,3.60
2019-03-10T14:39:09.152Z,2.50
2019-03-10T14:41:37.297Z,2.23
2019-03-10T14:44:05.464Z,8.70
2019-03-10T14:46:33.593Z,4.80
2019-03-10T14:49:01.729Z,4.63
2019-03-10T14:51:29.902Z,6.27
2019-03-10T14:53:58.186Z,5.67
2019-03-10T14:56:26.387Z,1.97
2019-03-10T14:58:55.657Z,5.30
2019-03-10T15:01:23.705Z,5.90
2019-03-10T15:03:51.952Z,16.60
2019-03-10T15:06:20.132Z,67.17
2019-03-10T15:08:48.281Z,6.33
2019-03-10T15:11:16.517Z,15.63
2019-03-10T15:13:44.713Z,12.20
2019-03-10T15:16:12.849Z,8.37
2019-03-10T15:18:41.075Z,5.93
2019-03-10T15:21:09.388Z,6.93
2019-03-10T15:23:40.161Z,17.57
2019-03-10T15:26:07.637Z,8.70
2019-03-10T15:28:35.825Z,5.63
2019-03-10T15:31:03.965Z,8.13
2019-03-10T15:33:32.104Z,10.17
2019-03-10T15:36:00.268Z,11.13
2019-03-10T15:38:28.644Z,6.70
2019-03-10T15:40:58.389Z,5.23
2019-03-10T15:43:26.650Z,3.87
2019-03-10T15:45:54.778Z,4.50
2019-03-10T15:48:22.914Z,9.03
2019-03-10T15:50:51.082Z,9.63
2019-03-10T15:53:19.284Z,8.97
2019-03-10T15:55:47.548Z,9.07
2019-03-10T15:58:15.721Z,12.20
2019-03-10T16:00:43.848Z,4.30
2019-03-10T16:03:12.014Z,8.30
2019-03-10T16:05:40.512Z,7.10
2019-03-10T16:08:08.687Z,6.70
2019-03-10T16:10:36.797Z,5.20
2019-03-10T16:13:04.983Z,14.03
2019-03-10T16:15:33.405Z,11.63
2019-03-10T16:18:04.584Z,8.70
2019-03-10T16:20:32.768Z,13.93
2019-03-10T16:23:00.963Z,15.23
2019-03-10T16:25:29.107Z,12.10
2019-03-10T16:27:57.265Z,49.47
2019-03-10T16:30:26.294Z,25.97
2019-03-10T16:32:54.513Z,14.63
2019-03-10T16:35:22.767Z,16.53
2019-03-10T16:37:50.942Z,15.83
2019-03-10T16:40:19.554Z,14.87
2019-03-10T16:42:48.182Z,12.27
2019-03-10T16:45:20.108Z,7.33
2019-03-10T16:47:48.453Z,12.27
2019-03-10T16:50:17.397Z,20.30
2019-03-10T16:52:45.537Z,22.17
2019-03-10T16:55:14.017Z,24.40
2019-03-10T16:57:42.189Z,26.43
2019-03-10T17:00:10.964Z,18.60
2019-03-10T17:02:39.112Z,25.67
2019-03-10T17:05:12.040Z,27.77
2019-03-10T17:07:40.184Z,16.93
2019-03-10T17:10:10.200Z,16.73
2019-03-10T17:12:38.360Z,11.23
2019-03-10T17:15:08.124Z,11.97
2019-03-10T17:17:36.275Z,14.23
2019-03-10T17:20:06.221Z,13.10
2019-03-10T17:22:34.361Z,11.10
2019-03-10T17:25:02.568Z,16.13
2019-03-10T17:27:30.736Z,9.93
2019-03-10T17:29:58.881Z,17.20
2019-03-10T17:32:27.082Z,18.27
2019-03-10T17:34:55.199Z,13.20
2019-03-10T17:37:23.348Z,12.10
2019-03-10T17:39:54.284Z,12.33
2019-03-10T17:42:22.452Z,12.17
2019-03-10T17:44:50.712Z,12.30
2019-03-10T17:47:18.866Z,14.13
2019-03-10T17:49:48.758Z,8.27
2019-03-10T17:52:16.881Z,11.93
2019-03-10T17:54:45.021Z,19.43
2019-03-10T17:57:13.195Z,11.77
2019-03-10T17:59:41.425Z,8.97
2019-03-10T18:02:09.581Z,18.83
2019-03-10T18:04:37.770Z,11.13
2019-03-10T18:07:05.905Z,6.83
2019-03-10T18:09:34.061Z,8.00
2019-03-10T18:12:02.478Z,12.53
2019-03-10T18:14:30.630Z,6.03
2019-03-10T18:16:58.768Z,6.37
2019-03-10T18:19:26.942Z,8.50
2019-03-10T18:21:55.077Z,8.53
2019-03-10T18:24:23.224Z,12.23
2019-03-10T18:26:51.389Z,12.10
2019-03-10T18:29:19.540Z,20.70
2019-03-10T18:31:47.689Z,24.50
2019-03-10T18:34:15.852Z,16.70
2019-03-10T18:36:44.021Z,14.37
2019-03-10T18:39:12.221Z,17.00
2019-03-10T18:41:40.409Z,14.97
2019-03-10T18:44:08.573Z,19.33
2019-03-10T18:46:36.840Z,21.03
2019-03-10T18:49:05.349Z,19.67
2019-03-10T18:51:33.504Z,18.63
2019-03-10T18:54:01.665Z,21.00
2019-03-10T18:56:29.873Z,22.80
2019-03-10T18:58:58.012Z,23.53
2019-03-10T19:01:26.168Z,21.77
2019-03-10T19:03:54.353Z,16.67
2019-03-10T19:06:22.513Z,16.27
2019-03-10T19:08:50.669Z,16.23
2019-03-10T19:11:18.844Z,16.43
2019-03-10T19:13:47.013Z,19.03
2019-03-10T19:16:15.168Z,22.00
2019-03-10T19:18:43.489Z,14.77
2019-03-10T19:21:11.650Z,14.33
2019-03-10T19:23:39.788Z,15.13
2019-03-10T19:26:08.092Z,17.00
2019-03-10T19:28:36.237Z,11.23
2019-03-10T19:31:04.389Z,14.80
2019-03-10T19:33:32.560Z,10.63
2019-03-10T19:36:00.708Z,10.03
2019-03-10T19:38:28.972Z,17.33
2019-03-10T19:40:57.149Z,11.60
2019-03-10T19:43:25.305Z,13.33
2019-03-10T19:45:53.454Z,17.63
2019-03-10T19:48:21.652Z,11.67
2019-03-10T19:50:49.814Z,10.73
2019-03-10T19:53:17.956Z,15.40
2019-03-10T19:55:46.132Z,15.13
2019-03-10T19:58:14.276Z,17.97
2019-03-10T20:00:42.417Z,18.57
2019-03-10T20:03:10.829Z,21.00
2019-03-10T20:05:39.102Z,10.10
2019-03-10T20:08:07.249Z,15.37
2019-03-10T20:10:35.800Z,18.63
2019-03-10T20:13:03.944Z,9.27
2019-03-10T20:15:32.075Z,14.23
2019-03-10T20:18:00.256Z,12.03
2019-03-10T20:20:30.035Z,10.73
2019-03-10T20:22:58.180Z,10.63
2019-03-10T20:25:26.344Z,10.10
2019-03-10T20:27:54.508Z,11.97
2019-03-10T20:30:23.540Z,10.20
2019-03-10T20:32:51.708Z,7.00
2019-03-10T20:35:19.850Z,13.00
2019-03-10T20:37:47.986Z,7.23
2019-03-10T20:40:17.792Z,13.23
2019-03-10T20:42:45.933Z,10.13
2019-03-10T20:45:14.158Z,12.27
2019-03-10T20:47:42.337Z,15.03
2019-03-10T20:50:14.448Z,8.77
2019-03-10T20:52:42.585Z,16.57
2019-03-10T20:55:11.538Z,12.33
2019-03-10T20:57:39.700Z,11.67
2019-03-10T21:00:20.522Z,10.60
2019-03-10T21:02:48.668Z,14.87
2019-03-10T21:05:16.943Z,14.27
2019-03-10T21:07:45.125Z,18.83
2019-03-10T21:10:27.189Z,11.13
2019-03-10T21:12:55.475Z,16.17
2019-03-10T21:15:26.013Z,12.87
2019-03-10T21:17:53.560Z,19.27
2019-03-10T21:20:25.005Z,14.50
2019-03-10T21:22:53.160Z,20.37
2019-03-10T21:25:24.963Z,11.27
2019-03-10T21:27:53.437Z,15.40
2019-03-10T21:30:22.848Z,16.77
2019-03-10T21:32:51.121Z,11.03
2019-03-10T21:35:19.280Z,10.20
2019-03-10T21:37:47.424Z,12.17
2019-03-10T21:40:20.117Z,11.03
2019-03-10T21:42:48.308Z,9.47
2019-03-10T21:45:16.456Z,13.53
2019-03-10T21:47:44.596Z,8.83
2019-03-10T21:50:13.952Z,14.77
2019-03-10T21:52:42.186Z,9.67
2019-03-10T21:55:11.870Z,13.53
2019-03-10T21:57:40.092Z,13.60
2019-03-10T22:00:12.828Z,11.87
2019-03-10T22:02:40.964Z,14.90
2019-03-10T22:05:12.506Z,14.90
2019-03-10T22:07:40.667Z,10.13
2019-03-10T22:10:09.878Z,9.97
2019-03-10T22:12:38.056Z,18.10
2019-03-10T22:15:07.829Z,6.30
2019-03-10T22:17:35.986Z,7.47
2019-03-10T22:20:05.910Z,5.27
2019-03-10T22:22:37.083Z,6.70
2019-03-10T22:25:12.127Z,7.70
2019-03-10T22:27:34.232Z,12.40
2019-03-10T22:30:02.440Z,15.00
2019-03-10T22:32:30.898Z,7.10
2019-03-10T22:34:59.044Z,9.63
2019-03-10T22:37:27.329Z,9.57
2019-03-10T22:39:55.464Z,6.53
2019-03-10T22:42:23.678Z,10.23
2019-03-10T22:44:51.813Z,7.53
2019-03-10T22:47:19.976Z,8.10
2019-03-10T22:49:48.156Z,14.90
2019-03-10T22:52:16.313Z,9.83
2019-03-10T22:54:44.462Z,7.97
2019-03-10T22:57:12.656Z,10.47
2019-03-10T22:59:40.793Z,11.50
2019-03-10T23:02:08.940Z,10.23
2019-03-10T23:04:37.120Z,9.33
2019-03-10T23:07:05.277Z,7.20
2019-03-10T23:09:33.433Z,8.40
2019-03-10T23:12:01.605Z,14.00
2019-03-10T23:14:29.760Z,10.30
2019-03-10T23:16:57.911Z,7.47
2019-03-10T23:19:26.072Z,12.40
2019-03-10T23:21:54.212Z,8.23
2019-03-10T23:24:22.641Z,12.37
2019-03-10T23:26:51.148Z,13.10
2019-03-10T23:29:19.295Z,10.87
2019-03-10T23:31:47.470Z,11.43
2019-03-10T23:34:15.625Z,8.00
2019-03-10T23:36:44.022Z,15.47
2019-03-10T23:39:12.157Z,11.10
2019-03-10T23:41:40.336Z,9.77
2019-03-10T23:44:13.032Z,5.50
2019-03-10T23:46:42.809Z,14.43
2019-03-10T23:49:10.977Z,11.07
2019-03-10T23:51:39.184Z,10.30
2019-03-10T23:54:07.447Z,9.87
2019-03-10T23:56:35.612Z,6.13
2019-03-10T23:59:03.777Z,10.03
